Time;durP1;ratioP1;P1;durP2;ratioP2;P2;SDS_P1;SDS_P2;PMS_P1;PMS_P2;Temp;Humidity;BMP_temperature;BMP_pressure;BME280_temperature;BME280_humidity;BME280_pressure;Samples;Min_cycle;Max_cycle;Signal;HPM_P1;HPM_P2
2024/01/11 00:02:21;;;;;;;13.30;7.63;;;;;;;;;;5025974;28;20264;-68
2024/01/11 00:04:47;;;;;;;14.20;7.47;;;;;;;;;;5025237;28;20256;-66
2024/01/11 00:07:12;;;;;;;11.93;6.73;;;;;;;;;;5013974;28;20642;-67
2024/01/11 00:09:43;;;;;;;15.53;7.73;;;;;;;;;;4993762;28;20370;-67
2024/01/11 00:12:09;;;;;;;11.73;7.07;;;;;;;;;;5024738;28;20271;-67
2024/01/11 00:14:34;;;;;;;10.93;7.67;;;;;;;;;;5016615;28;20308;-68
2024/01/11 00:17:00;;;;;;;12.60;7.33;;;;;;;;;;5029611;28;20669;-68
2024/01/11 00:19:25;;;;;;;11.00;6.73;;;;;;;;;;5028072;28;20186;-67
2024/01/11 00:21:50;;;;;;;11.70;6.67;;;;;;;;;;5028893;28;20182;-68
2024/01/11 00:24:16;;;;;;;12.60;7.23;;;;;;;;;;5026422;28;20195;-67
2024/01/11 00:26:41;;;;;;;14.10;6.97;;;;;;;;;;5030197;28;20193;-68
2024/01/11 00:29:07;;;;;;;13.90;7.33;;;;;;;;;;5031065;28;20206;-67
2024/01/11 00:31:32;;;;;;;12.30;7.03;;;;;;;;;;5024417;28;20666;-68
2024/01/11 00:33:57;;;;;;;12.80;6.87;;;;;;;;;;5029870;28;20277;-67
2024/01/11 00:36:22;;;;;;;11.70;6.43;;;;;;;;;;5026560;28;20206;-67
2024/01/11 00:38:47;;;;;;;13.83;6.67;;;;;;;;;;5028399;28;20448;-68
2024/01/11 00:41:13;;;;;;;12.67;7.10;;;;;;;;;;5026584;28;20171;-67
2024/01/11 00:43:38;;;;;;;13.50;8.17;;;;;;;;;;5028325;28;20198;-67
2024/01/11 00:46:03;;;;;;;15.53;7.03;;;;;;;;;;5024862;28;20178;-67
2024/01/11 00:48:28;;;;;;;11.70;7.03;;;;;;;;;;5025396;28;20187;-67
2024/01/11 00:50:54;;;;;;;14.70;8.03;;;;;;;;;;5023355;28;20666;-67
2024/01/11 00:53:19;;;;;;;13.60;6.90;;;;;;;;;;5026984;28;20277;-67
2024/01/11 00:55:44;;;;;;;13.77;6.73;;;;;;;;;;5030162;28;20209;-67
2024/01/11 00:58:09;;;;;;;13.23;7.20;;;;;;;;;;5029211;28;20179;-67
2024/01/11 01:00:34;;;;;;;17.50;8.07;;;;;;;;;;5026661;28;20295;-67
2024/01/11 01:02:59;;;;;;;12.90;7.00;;;;;;;;;;5010902;28;20276;-67
2024/01/11 01:05:25;;;;;;;11.43;6.87;;;;;;;;;;5029347;28;20174;-67
2024/01/11 01:07:50;;;;;;;15.23;6.90;;;;;;;;;;5028468;28;20182;-67
2024/01/11 01:10:15;;;;;;;12.20;6.87;;;;;;;;;;5029261;28;20204;-67
2024/01/11 01:12:40;;;;;;;12.93;7.37;;;;;;;;;;5026486;28;20177;-67
2024/01/11 01:15:06;;;;;;;13.87;7.67;;;;;;;;;;5008349;28;20637;-67
2024/01/11 01:17:31;;;;;;;13.40;7.07;;;;;;;;;;5028169;28;20185;-67
2024/01/11 01:19:57;;;;;;;15.53;7.50;;;;;;;;;;5024475;28;20166;-68
2024/01/11 01:22:22;;;;;;;13.27;7.67;;;;;;;;;;5025592;28;20174;-68
2024/01/11 01:24:47;;;;;;;12.57;7.30;;;;;;;;;;5028087;28;20202;-67
2024/01/11 01:27:13;;;;;;;13.90;7.57;;;;;;;;;;5027297;28;20202;-68
2024/01/11 01:29:38;;;;;;;15.70;8.00;;;;;;;;;;5029221;28;20177;-68
2024/01/11 01:32:03;;;;;;;17.60;7.27;;;;;;;;;;5021841;28;20217;-68
2024/01/11 01:34:28;;;;;;;10.77;7.10;;;;;;;;;;5019358;28;20218;-67
2024/01/11 01:36:54;;;;;;;11.40;6.83;;;;;;;;;;5024077;28;20617;-68
2024/01/11 01:39:19;;;;;;;13.90;7.23;;;;;;;;;;5026445;28;20182;-67
2024/01/11 01:41:44;;;;;;;15.83;8.77;;;;;;;;;;5028117;28;20231;-67
2024/01/11 01:44:09;;;;;;;13.03;7.57;;;;;;;;;;5027968;28;20198;-67
2024/01/11 01:46:34;;;;;;;15.97;7.70;;;;;;;;;;5003792;28;20179;-68
2024/01/11 01:49:00;;;;;;;17.33;7.47;;;;;;;;;;5027738;28;20575;-67
2024/01/11 01:51:26;;;;;;;15.03;8.40;;;;;;;;;;5022941;28;20242;-68
2024/01/11 01:53:52;;;;;;;17.33;8.00;;;;;;;;;;5026631;28;20205;-67
2024/01/11 01:56:19;;;;;;;17.27;8.37;;;;;;;;;;5026765;28;20175;-67
2024/01/11 01:58:44;;;;;;;14.97;7.97;;;;;;;;;;5028986;28;20178;-67
2024/01/11 02:01:10;;;;;;;14.43;7.33;;;;;;;;;;5026504;28;20188;-67
2024/01/11 02:03:35;;;;;;;15.73;7.83;;;;;;;;;;5030460;28;20221;-67
2024/01/11 02:06:00;;;;;;;16.03;7.90;;;;;;;;;;5029865;28;20182;-67
2024/01/11 02:08:27;;;;;;;14.73;8.07;;;;;;;;;;5028112;28;20174;-67
2024/01/11 02:10:52;;;;;;;16.03;9.00;;;;;;;;;;5027099;28;21530;-67
2024/01/11 02:13:17;;;;;;;19.13;8.63;;;;;;;;;;5046428;23;20256;-71
2024/01/11 02:15:44;;;;;;;19.60;8.80;;;;;;;;;;5029352;28;20596;-71
2024/01/11 02:18:09;;;;;;;18.73;8.00;;;;;;;;;;5011246;28;20217;-71
2024/01/11 02:20:35;;;;;;;13.20;7.60;;;;;;;;;;5009363;28;20665;-72
2024/01/11 02:23:05;;;;;;;15.67;7.73;;;;;;;;;;5011292;28;20515;-72
2024/01/11 02:25:30;;;;;;;17.00;8.20;;;;;;;;;;5027379;28;20183;-72
2024/01/11 02:27:55;;;;;;;14.93;7.97;;;;;;;;;;5026641;28;20550;-72
2024/01/11 02:30:20;;;;;;;14.37;8.40;;;;;;;;;;5030147;28;20221;-72
2024/01/11 02:32:46;;;;;;;15.60;8.17;;;;;;;;;;5011038;28;20205;-72
2024/01/11 02:35:15;;;;;;;18.17;8.60;;;;;;;;;;5033434;28;20274;-72
2024/01/11 02:37:40;;;;;;;13.53;8.13;;;;;;;;;;5032250;28;20174;-72
2024/01/11 02:40:07;;;;;;;15.80;8.60;;;;;;;;;;5015747;28;20497;-70
2024/01/11 02:42:32;;;;;;;17.57;8.77;;;;;;;;;;5027185;28;20174;-70
2024/01/11 02:44:57;;;;;;;15.37;8.43;;;;;;;;;;5030897;28;20777;-70
2024/01/11 02:47:23;;;;;;;16.00;8.20;;;;;;;;;;5033409;28;20209;-71
2024/01/11 02:49:48;;;;;;;19.00;8.23;;;;;;;;;;5014891;28;20208;-71
2024/01/11 02:52:13;;;;;;;16.60;8.87;;;;;;;;;;5033358;28;20733;-71
2024/01/11 02:54:38;;;;;;;14.33;8.10;;;;;;;;;;5016013;28;20484;-71
2024/01/11 02:57:04;;;;;;;16.03;8.30;;;;;;;;;;5011194;28;20177;-73
2024/01/11 02:59:29;;;;;;;18.77;9.90;;;;;;;;;;5027553;28;20225;-72
2024/01/11 03:01:54;;;;;;;16.47;8.47;;;;;;;;;;5031623;28;20178;-72
2024/01/11 03:04:19;;;;;;;16.43;10.00;;;;;;;;;;5033601;28;20750;-70
2024/01/11 03:06:45;;;;;;;16.03;8.53;;;;;;;;;;5015117;28;20280;-71
2024/01/11 03:09:10;;;;;;;21.07;8.97;;;;;;;;;;5031885;28;20559;-72
2024/01/11 03:11:37;;;;;;;16.87;8.83;;;;;;;;;;5032907;28;20669;-71
2024/01/11 03:14:02;;;;;;;18.90;9.87;;;;;;;;;;5031406;28;20288;-72
2024/01/11 03:16:27;;;;;;;14.87;7.87;;;;;;;;;;5029897;28;20633;-71
2024/01/11 03:18:52;;;;;;;16.03;8.13;;;;;;;;;;5031196;28;20178;-72
2024/01/11 03:21:18;;;;;;;18.87;9.50;;;;;;;;;;5028373;28;20170;-71
2024/01/11 03:23:43;;;;;;;17.73;8.93;;;;;;;;;;5015055;28;20752;-72
2024/01/11 03:26:12;;;;;;;15.87;8.57;;;;;;;;;;5010099;28;20178;-71
2024/01/11 03:28:38;;;;;;;20.47;9.87;;;;;;;;;;5011402;28;20265;-72
2024/01/11 03:31:03;;;;;;;17.50;8.43;;;;;;;;;;5033051;28;20297;-72
2024/01/11 03:33:28;;;;;;;16.10;8.67;;;;;;;;;;5029025;28;20187;-72
2024/01/11 03:35:53;;;;;;;20.07;9.80;;;;;;;;;;5026000;28;20186;-73
2024/01/11 03:38:18;;;;;;;20.67;9.47;;;;;;;;;;5028195;28;20621;-72
2024/01/11 03:40:43;;;;;;;17.10;9.47;;;;;;;;;;5031983;28;20200;-72
2024/01/11 03:43:09;;;;;;;17.07;8.63;;;;;;;;;;5031439;28;20190;-72
2024/01/11 03:45:34;;;;;;;17.17;8.60;;;;;;;;;;5025885;28;20241;-72
2024/01/11 03:47:59;;;;;;;23.77;12.40;;;;;;;;;;5029089;28;20698;-71
2024/01/11 03:50:24;;;;;;;14.00;8.93;;;;;;;;;;5013104;28;20205;-72
2024/01/11 03:52:49;;;;;;;16.53;8.83;;;;;;;;;;5031410;28;20178;-71
2024/01/11 03:55:15;;;;;;;21.70;10.60;;;;;;;;;;5024592;28;20252;-72
2024/01/11 03:57:40;;;;;;;21.13;10.37;;;;;;;;;;5030469;28;20652;-71
2024/01/11 04:00:06;;;;;;;16.87;9.77;;;;;;;;;;5030259;28;20201;-72
2024/01/11 04:02:31;;;;;;;21.60;10.83;;;;;;;;;;5028225;28;20176;-72
2024/01/11 04:04:56;;;;;;;26.03;11.57;;;;;;;;;;5010565;28;20716;-72
2024/01/11 04:07:21;;;;;;;17.77;12.07;;;;;;;;;;5030516;28;20201;-72
2024/01/11 04:09:47;;;;;;;20.23;11.90;;;;;;;;;;5029037;28;20178;-71
2024/01/11 04:12:12;;;;;;;20.67;11.70;;;;;;;;;;5022285;28;20562;-72
2024/01/11 04:14:38;;;;;;;23.57;11.37;;;;;;;;;;5027779;28;20218;-72
2024/01/11 04:17:03;;;;;;;23.33;11.30;;;;;;;;;;5027714;28;20193;-72
2024/01/11 04:19:28;;;;;;;23.20;11.47;;;;;;;;;;5031287;28;20664;-72
2024/01/11 04:21:53;;;;;;;20.03;10.30;;;;;;;;;;5027183;28;20186;-73
2024/01/11 04:24:19;;;;;;;21.57;11.77;;;;;;;;;;5029565;28;20586;-71
2024/01/11 04:26:44;;;;;;;25.07;12.67;;;;;;;;;;5029181;28;20182;-72
2024/01/11 04:29:09;;;;;;;28.23;13.23;;;;;;;;;;5026545;28;20221;-71
2024/01/11 04:31:34;;;;;;;24.80;12.80;;;;;;;;;;5011143;28;20259;-72
2024/01/11 04:33:59;;;;;;;27.47;12.70;;;;;;;;;;5030822;28;20206;-72
2024/01/11 04:36:25;;;;;;;23.00;12.37;;;;;;;;;;5022933;28;20527;-73
2024/01/11 04:38:50;;;;;;;28.27;13.70;;;;;;;;;;5009394;28;20182;-73
2024/01/11 04:41:15;;;;;;;28.63;13.47;;;;;;;;;;5011874;28;20682;-72
2024/01/11 04:43:41;;;;;;;24.33;12.33;;;;;;;;;;5030796;28;20194;-71
2024/01/11 04:46:16;;;;;;;26.93;13.90;;;;;;;;;;5011612;28;20181;-71
2024/01/11 04:48:41;;;;;;;29.87;14.33;;;;;;;;;;5028205;28;20210;-72
2024/01/11 04:51:07;;;;;;;27.40;14.50;;;;;;;;;;5012927;28;20258;-71
2024/01/11 04:53:32;;;;;;;27.47;14.17;;;;;;;;;;5024320;28;20562;-73
2024/01/11 04:55:57;;;;;;;30.13;14.50;;;;;;;;;;5007287;28;20177;-71
2024/01/11 04:58:22;;;;;;;29.47;14.23;;;;;;;;;;5028269;28;20672;-72
2024/01/11 05:00:48;;;;;;;32.63;15.00;;;;;;;;;;5023974;28;20771;-71
2024/01/11 05:03:13;;;;;;;26.53;14.20;;;;;;;;;;5027496;28;20198;-71
2024/01/11 05:05:38;;;;;;;26.30;14.03;;;;;;;;;;5027179;28;20555;-72
2024/01/11 05:08:04;;;;;;;31.07;14.60;;;;;;;;;;5006446;28;20240;-72
2024/01/11 05:10:29;;;;;;;28.57;15.10;;;;;;;;;;5024990;28;20277;-72
2024/01/11 05:12:54;;;;;;;27.73;16.23;;;;;;;;;;5008962;28;20167;-72
2024/01/11 05:15:19;;;;;;;30.90;16.60;;;;;;;;;;5028930;28;20239;-72
2024/01/11 05:17:44;;;;;;;28.63;15.73;;;;;;;;;;5011593;28;20198;-72
2024/01/11 05:20:10;;;;;;;29.17;16.23;;;;;;;;;;5024935;28;20555;-72
2024/01/11 05:22:35;;;;;;;31.13;17.50;;;;;;;;;;5026934;28;20240;-72
2024/01/11 05:25:01;;;;;;;32.13;15.43;;;;;;;;;;5022732;28;20207;-72
2024/01/11 05:27:27;;;;;;;34.40;17.23;;;;;;;;;;5027398;28;20280;-72
2024/01/11 05:29:52;;;;;;;36.63;16.77;;;;;;;;;;5029170;28;20182;-72
2024/01/11 05:32:17;;;;;;;32.97;16.67;;;;;;;;;;5031108;28;20253;-72
2024/01/11 05:34:42;;;;;;;34.30;15.37;;;;;;;;;;5024523;28;20193;-71
2024/01/11 05:37:07;;;;;;;31.63;16.90;;;;;;;;;;5029495;28;20185;-71
2024/01/11 05:39:32;;;;;;;30.13;15.80;;;;;;;;;;5027614;28;20183;-71
2024/01/11 05:41:58;;;;;;;31.43;15.90;;;;;;;;;;5027368;28;20178;-72
2024/01/11 05:44:23;;;;;;;33.80;16.33;;;;;;;;;;5022626;28;20247;-71
2024/01/11 05:46:48;;;;;;;30.03;15.97;;;;;;;;;;5026692;28;20791;-71
2024/01/11 05:49:13;;;;;;;31.10;15.73;;;;;;;;;;5026203;28;20177;-72
2024/01/11 05:51:38;;;;;;;32.03;16.33;;;;;;;;;;5029762;28;20209;-73
2024/01/11 05:54:04;;;;;;;29.90;15.90;;;;;;;;;;5012075;28;20288;-72
2024/01/11 05:56:29;;;;;;;30.90;15.80;;;;;;;;;;5029032;28;20169;-72
2024/01/11 05:58:54;;;;;;;35.30;17.23;;;;;;;;;;5025823;28;20209;-72
2024/01/11 06:01:19;;;;;;;34.70;17.33;;;;;;;;;;5027034;28;20174;-72
2024/01/11 06:03:45;;;;;;;38.50;17.07;;;;;;;;;;5021107;28;20209;-70
2024/01/11 06:06:11;;;;;;;34.60;16.97;;;;;;;;;;5015810;28;20181;-71
2024/01/11 06:08:36;;;;;;;32.03;15.30;;;;;;;;;;5017379;28;20182;-71
2024/01/11 06:11:01;;;;;;;33.33;16.83;;;;;;;;;;5033253;28;20211;-71
2024/01/11 06:13:27;;;;;;;29.33;16.13;;;;;;;;;;5030923;28;20212;-72
2024/01/11 06:15:53;;;;;;;29.63;15.67;;;;;;;;;;5033127;28;20684;-72
2024/01/11 06:18:18;;;;;;;32.20;18.13;;;;;;;;;;5034862;28;20176;-73
2024/01/11 06:20:43;;;;;;;33.43;16.87;;;;;;;;;;5034162;28;20205;-73
2024/01/11 06:23:08;;;;;;;30.77;15.57;;;;;;;;;;5015013;28;20205;-72
2024/01/11 06:25:34;;;;;;;34.83;18.40;;;;;;;;;;5014444;28;20663;-73
2024/01/11 06:27:59;;;;;;;30.77;16.67;;;;;;;;;;5032729;28;20179;-72
2024/01/11 06:30:24;;;;;;;32.57;16.50;;;;;;;;;;5034191;28;20561;-72
2024/01/11 06:32:49;;;;;;;38.47;17.23;;;;;;;;;;5036689;28;20645;-72
2024/01/11 06:35:15;;;;;;;38.57;18.00;;;;;;;;;;5029158;28;20258;-72
2024/01/11 06:37:40;;;;;;;32.20;16.23;;;;;;;;;;5034431;28;20198;-72
2024/01/11 06:40:08;;;;;;;35.23;18.07;;;;;;;;;;5031297;28;20181;-72
2024/01/11 06:42:33;;;;;;;36.57;18.37;;;;;;;;;;5031888;28;20187;-72
2024/01/11 06:44:58;;;;;;;36.80;19.60;;;;;;;;;;5036414;28;20193;-72
2024/01/11 06:47:23;;;;;;;34.93;18.30;;;;;;;;;;5034470;28;20668;-71
2024/01/11 06:49:48;;;;;;;34.53;17.27;;;;;;;;;;5028732;28;20175;-74
2024/01/11 06:52:14;;;;;;;39.20;18.80;;;;;;;;;;5034532;28;20209;-72
2024/01/11 06:54:39;;;;;;;40.03;19.33;;;;;;;;;;5034605;28;20193;-71
2024/01/11 06:57:04;;;;;;;34.23;17.77;;;;;;;;;;5032806;28;20270;-72
2024/01/11 06:59:29;;;;;;;40.63;18.70;;;;;;;;;;5015753;28;20178;-72
2024/01/11 07:01:55;;;;;;;32.43;17.13;;;;;;;;;;5027999;28;20182;-72
2024/01/11 07:04:20;;;;;;;39.43;19.53;;;;;;;;;;5034834;28;20194;-72
2024/01/11 07:06:45;;;;;;;41.60;19.87;;;;;;;;;;5027958;28;20192;-73
2024/01/11 07:09:10;;;;;;;37.77;19.37;;;;;;;;;;5031732;28;20632;-73
2024/01/11 07:11:36;;;;;;;42.63;20.37;;;;;;;;;;5014596;28;20703;-71
2024/01/11 07:14:01;;;;;;;41.00;19.90;;;;;;;;;;5033775;28;20216;-74
2024/01/11 07:16:26;;;;;;;38.47;19.60;;;;;;;;;;5021569;28;20183;-73
2024/01/11 07:18:52;;;;;;;40.33;21.23;;;;;;;;;;5022081;28;20179;-73
2024/01/11 07:21:29;;;;;;;40.73;20.07;;;;;;;;;;5021232;28;20198;-73
2024/01/11 07:23:54;;;;;;;38.93;19.20;;;;;;;;;;5009952;28;20292;-73
2024/01/11 07:26:19;;;;;;;39.83;20.00;;;;;;;;;;5027933;28;20308;-73
2024/01/11 07:28:44;;;;;;;35.97;19.07;;;;;;;;;;5027889;28;20261;-72
2024/01/11 07:31:10;;;;;;;42.67;18.80;;;;;;;;;;5027330;28;20193;-72
2024/01/11 07:33:35;;;;;;;41.97;20.47;;;;;;;;;;5014055;28;20415;-73
2024/01/11 07:36:00;;;;;;;44.57;20.80;;;;;;;;;;5030011;28;20182;-73
2024/01/11 07:38:25;;;;;;;41.57;20.90;;;;;;;;;;5033059;28;20224;-73
2024/01/11 07:40:51;;;;;;;40.93;19.60;;;;;;;;;;5035769;28;20177;-72
2024/01/11 07:43:16;;;;;;;35.83;19.60;;;;;;;;;;5026090;28;20204;-73
2024/01/11 07:45:41;;;;;;;39.57;20.10;;;;;;;;;;5030243;28;20185;-71
2024/01/11 07:48:06;;;;;;;37.93;18.83;;;;;;;;;;5032895;28;20173;-72
2024/01/11 07:50:32;;;;;;;40.73;19.53;;;;;;;;;;5031901;28;20311;-72
2024/01/11 07:52:57;;;;;;;36.90;19.87;;;;;;;;;;5031691;28;20259;-72
2024/01/11 07:55:23;;;;;;;37.23;20.17;;;;;;;;;;5030897;28;20591;-73
2024/01/11 07:57:49;;;;;;;38.57;20.90;;;;;;;;;;5015105;28;20189;-72
2024/01/11 08:00:15;;;;;;;37.27;19.60;;;;;;;;;;5024137;28;20174;-72
2024/01/11 08:02:40;;;;;;;39.50;19.50;;;;;;;;;;5023938;28;20230;-72
2024/01/11 08:05:06;;;;;;;39.77;18.43;;;;;;;;;;5028375;28;20308;-73
2024/01/11 08:07:31;;;;;;;38.50;19.43;;;;;;;;;;5029154;28;20197;-72
2024/01/11 08:09:56;;;;;;;39.27;21.10;;;;;;;;;;5029749;28;20229;-72
2024/01/11 08:12:22;;;;;;;42.43;20.10;;;;;;;;;;5032327;28;20289;-72
2024/01/11 08:14:47;;;;;;;40.53;20.47;;;;;;;;;;5030514;28;20236;-71
2024/01/11 08:17:13;;;;;;;43.50;21.13;;;;;;;;;;5031543;28;20577;-70
2024/01/11 08:19:38;;;;;;;38.23;19.80;;;;;;;;;;5026296;28;20178;-70
2024/01/11 08:22:04;;;;;;;38.57;19.00;;;;;;;;;;5030147;28;20224;-70
2024/01/11 08:24:29;;;;;;;47.07;19.70;;;;;;;;;;5029841;28;21890;-69
2024/01/11 08:26:54;;;;;;;40.57;19.63;;;;;;;;;;5029105;28;20308;-70
2024/01/11 08:29:20;;;;;;;40.90;20.33;;;;;;;;;;5029422;28;20179;-71
2024/01/11 08:31:45;;;;;;;37.00;20.50;;;;;;;;;;5027110;28;20669;-69
2024/01/11 08:34:10;;;;;;;37.70;20.30;;;;;;;;;;5012243;28;20291;-71
2024/01/11 08:36:38;;;;;;;39.13;19.83;;;;;;;;;;5029721;28;20670;-70
2024/01/11 08:39:05;;;;;;;42.53;20.50;;;;;;;;;;5030696;28;20254;-70
2024/01/11 08:41:30;;;;;;;45.17;21.30;;;;;;;;;;5012503;28;20622;-71
2024/01/11 08:43:55;;;;;;;43.03;21.80;;;;;;;;;;5029732;28;20320;-70
2024/01/11 08:46:27;;;;;;;33.70;19.13;;;;;;;;;;5012719;28;20712;-70
2024/01/11 08:48:53;;;;;;;41.03;20.27;;;;;;;;;;5023962;28;20183;-70
2024/01/11 08:51:18;;;;;;;38.00;20.00;;;;;;;;;;5031594;28;20702;-69
2024/01/11 08:53:44;;;;;;;39.53;20.93;;;;;;;;;;5030224;28;20194;-69
2024/01/11 08:56:09;;;;;;;39.83;22.07;;;;;;;;;;5027407;28;20202;-70
2024/01/11 08:58:34;;;;;;;43.20;21.27;;;;;;;;;;5030701;28;20261;-69
2024/01/11 09:00:59;;;;;;;37.50;20.43;;;;;;;;;;5030621;28;20185;-68
2024/01/11 09:03:25;;;;;;;38.50;19.53;;;;;;;;;;5028680;28;20193;-69
2024/01/11 09:05:50;;;;;;;43.30;22.07;;;;;;;;;;5012986;28;20220;-69
2024/01/11 09:08:15;;;;;;;38.47;20.57;;;;;;;;;;5026585;28;20217;-69
2024/01/11 09:10:41;;;;;;;40.60;19.57;;;;;;;;;;5030387;28;20247;-70
2024/01/11 09:13:06;;;;;;;42.83;19.87;;;;;;;;;;5030067;28;20174;-69
2024/01/11 09:15:32;;;;;;;43.43;20.33;;;;;;;;;;5030281;28;20552;-70
2024/01/11 09:18:00;;;;;;;36.20;20.23;;;;;;;;;;5013033;28;20227;-69
2024/01/11 09:20:25;;;;;;;35.93;18.63;;;;;;;;;;5027960;28;20178;-71
2024/01/11 09:22:50;;;;;;;36.37;17.63;;;;;;;;;;5007367;28;20189;-69
2024/01/11 09:25:15;;;;;;;36.67;17.57;;;;;;;;;;5027888;28;20201;-70
2024/01/11 09:27:40;;;;;;;29.60;17.10;;;;;;;;;;5009963;28;20685;-69
2024/01/11 09:30:06;;;;;;;32.80;15.90;;;;;;;;;;5012295;28;20178;-69
2024/01/11 09:32:31;;;;;;;30.87;14.87;;;;;;;;;;5011677;28;20182;-69
2024/01/11 09:34:56;;;;;;;31.73;15.77;;;;;;;;;;5028865;28;20190;-69
2024/01/11 09:37:22;;;;;;;25.70;14.07;;;;;;;;;;5013002;28;20185;-70
2024/01/11 09:39:47;;;;;;;23.80;13.67;;;;;;;;;;5028691;28;20257;-70
2024/01/11 09:42:12;;;;;;;27.93;13.73;;;;;;;;;;5022102;28;20193;-68
2024/01/11 09:44:41;;;;;;;26.37;13.50;;;;;;;;;;5029723;28;20190;-69
2024/01/11 09:47:08;;;;;;;29.50;13.47;;;;;;;;;;5030868;28;20178;-69
2024/01/11 09:49:34;;;;;;;25.27;13.87;;;;;;;;;;5030731;28;20174;-68
2024/01/11 09:52:01;;;;;;;28.13;14.03;;;;;;;;;;5009183;28;20236;-70
2024/01/11 09:54:26;;;;;;;26.03;14.70;;;;;;;;;;5029329;28;21000;-70
2024/01/11 09:56:53;;;;;;;19.83;13.57;;;;;;;;;;5024236;28;20261;-68
2024/01/11 09:59:19;;;;;;;29.07;14.73;;;;;;;;;;5029572;28;20316;-68
2024/01/11 10:01:45;;;;;;;24.60;13.40;;;;;;;;;;5028364;28;20691;-69
2024/01/11 10:04:11;;;;;;;22.87;13.20;;;;;;;;;;5024879;28;20297;-69
2024/01/11 10:06:38;;;;;;;25.23;13.70;;;;;;;;;;5030009;28;20174;-69
2024/01/11 10:09:03;;;;;;;19.20;12.50;;;;;;;;;;5027964;28;20269;-69
2024/01/11 10:11:28;;;;;;;23.17;13.40;;;;;;;;;;5028861;28;20607;-68
2024/01/11 10:13:57;;;;;;;20.83;12.50;;;;;;;;;;5025864;28;20256;-69
2024/01/11 10:16:22;;;;;;;22.47;12.43;;;;;;;;;;5009787;28;20192;-68
2024/01/11 10:18:48;;;;;;;21.30;11.70;;;;;;;;;;5009577;28;20174;-70
2024/01/11 10:21:13;;;;;;;21.57;11.63;;;;;;;;;;5029300;28;20183;-69
2024/01/11 10:23:39;;;;;;;18.93;11.10;;;;;;;;;;5012534;28;20194;-71
2024/01/11 10:26:05;;;;;;;23.97;11.27;;;;;;;;;;5026805;28;20178;-69
2024/01/11 10:28:30;;;;;;;18.80;11.23;;;;;;;;;;5011068;28;20190;-69
2024/01/11 10:30:55;;;;;;;27.73;12.37;;;;;;;;;;5025483;28;20205;-70
2024/01/11 10:33:21;;;;;;;20.37;10.80;;;;;;;;;;5029352;28;20624;-68
2024/01/11 10:35:48;;;;;;;21.80;10.83;;;;;;;;;;5031712;28;20616;-69
2024/01/11 10:38:14;;;;;;;21.30;11.23;;;;;;;;;;5027294;28;20182;-69
2024/01/11 10:40:40;;;;;;;25.03;12.47;;;;;;;;;;5029178;28;20258;-69
2024/01/11 10:43:11;;;;;;;23.63;12.73;;;;;;;;;;5011503;28;20275;-69
2024/01/11 10:45:38;;;;;;;22.67;11.53;;;;;;;;;;5012390;28;20174;-69
2024/01/11 10:48:07;;;;;;;23.67;11.77;;;;;;;;;;5025431;28;20191;-68
2024/01/11 10:50:35;;;;;;;23.07;12.43;;;;;;;;;;5028798;28;20195;-69
2024/01/11 10:53:09;;;;;;;22.53;12.43;;;;;;;;;;5008977;28;20193;-69
2024/01/11 10:55:34;;;;;;;22.67;10.87;;;;;;;;;;5029582;28;20708;-69
2024/01/11 10:58:00;;;;;;;20.53;11.70;;;;;;;;;;5026883;28;20182;-69
2024/01/11 11:00:26;;;;;;;17.33;10.70;;;;;;;;;;5031098;28;20236;-68
2024/01/11 11:02:52;;;;;;;19.23;10.57;;;;;;;;;;5031063;28;20549;-68
2024/01/11 11:05:18;;;;;;;20.73;10.93;;;;;;;;;;5026161;28;20199;-69
2024/01/11 11:07:43;;;;;;;19.37;9.10;;;;;;;;;;5027128;28;20179;-70
2024/01/11 11:10:09;;;;;;;19.80;10.40;;;;;;;;;;5011603;28;20182;-70
2024/01/11 11:12:36;;;;;;;19.17;10.30;;;;;;;;;;5026190;28;20538;-69
2024/01/11 11:15:02;;;;;;;20.00;10.73;;;;;;;;;;5029541;28;20242;-70
2024/01/11 11:17:27;;;;;;;20.17;10.70;;;;;;;;;;5025474;28;20182;-69
2024/01/11 11:19:53;;;;;;;18.77;10.23;;;;;;;;;;5028426;28;20170;-68
2024/01/11 11:22:19;;;;;;;15.33;9.97;;;;;;;;;;5027797;28;20188;-69
2024/01/11 11:24:44;;;;;;;19.87;10.93;;;;;;;;;;5028832;28;20203;-69
2024/01/11 11:27:12;;;;;;;17.80;9.53;;;;;;;;;;5028723;28;20194;-68
2024/01/11 11:29:38;;;;;;;17.90;9.40;;;;;;;;;;5028411;28;20265;-69
2024/01/11 11:32:04;;;;;;;16.20;9.13;;;;;;;;;;5027171;28;20297;-69
2024/01/11 11:34:44;;;;;;;15.87;9.93;;;;;;;;;;5023290;28;20578;-70
2024/01/11 11:37:09;;;;;;;16.77;9.57;;;;;;;;;;5027822;28;20194;-69
2024/01/11 11:39:34;;;;;;;19.70;9.73;;;;;;;;;;5006726;28;20266;-68
2024/01/11 11:42:01;;;;;;;19.03;10.50;;;;;;;;;;5027679;28;20191;-68
2024/01/11 11:44:26;;;;;;;15.57;9.07;;;;;;;;;;5030824;28;20288;-69
2024/01/11 11:46:51;;;;;;;16.70;8.97;;;;;;;;;;5027398;28;20174;-69
2024/01/11 11:49:16;;;;;;;19.53;9.63;;;;;;;;;;5023889;28;20693;-69
2024/01/11 11:51:43;;;;;;;16.23;8.53;;;;;;;;;;5022871;28;20214;-69
2024/01/11 11:54:09;;;;;;;21.83;9.47;;;;;;;;;;5014250;28;20226;-69
2024/01/11 11:56:35;;;;;;;17.33;9.67;;;;;;;;;;5028165;28;20174;-70
2024/01/11 11:59:02;;;;;;;15.40;8.57;;;;;;;;;;5026076;28;20225;-69
2024/01/11 12:01:28;;;;;;;15.80;9.73;;;;;;;;;;5012593;28;20551;-70
2024/01/11 12:03:53;;;;;;;16.57;8.97;;;;;;;;;;5025881;28;20344;-69
2024/01/11 12:06:19;;;;;;;18.07;9.77;;;;;;;;;;5027956;28;20265;-71
2024/01/11 12:08:46;;;;;;;18.80;9.03;;;;;;;;;;5006176;28;20193;-69
2024/01/11 12:11:15;;;;;;;16.67;9.03;;;;;;;;;;5009946;28;20220;-70
2024/01/11 12:13:41;;;;;;;14.90;9.37;;;;;;;;;;5028741;28;20264;-69
2024/01/11 12:16:06;;;;;;;15.53;9.13;;;;;;;;;;5028750;28;20262;-69
2024/01/11 12:18:31;;;;;;;16.77;9.30;;;;;;;;;;5026744;28;20244;-69
2024/01/11 12:20:56;;;;;;;15.40;8.30;;;;;;;;;;5015000;28;20192;-70
2024/01/11 12:23:23;;;;;;;16.50;8.90;;;;;;;;;;5024997;28;20202;-68
2024/01/11 12:25:48;;;;;;;14.37;8.93;;;;;;;;;;5024796;28;20731;-69
2024/01/11 12:28:13;;;;;;;15.03;8.80;;;;;;;;;;5030457;28;20200;-69
2024/01/11 12:30:39;;;;;;;13.20;8.23;;;;;;;;;;5027505;28;20206;-70
2024/01/11 12:33:05;;;;;;;12.77;7.83;;;;;;;;;;5028398;28;20174;-69
2024/01/11 12:35:30;;;;;;;13.27;8.37;;;;;;;;;;5025266;28;20237;-69
2024/01/11 12:37:58;;;;;;;14.00;8.20;;;;;;;;;;5026597;28;20276;-70
2024/01/11 12:40:23;;;;;;;13.67;8.70;;;;;;;;;;5026512;28;20210;-69
2024/01/11 12:42:51;;;;;;;12.40;7.77;;;;;;;;;;5031019;28;20337;-69
2024/01/11 12:45:17;;;;;;;15.17;7.90;;;;;;;;;;5007198;28;20417;-68
2024/01/11 12:47:42;;;;;;;15.03;8.63;;;;;;;;;;5032198;28;20654;-70
2024/01/11 12:50:08;;;;;;;13.33;8.20;;;;;;;;;;5026393;28;20178;-69
2024/01/11 12:52:33;;;;;;;14.40;8.00;;;;;;;;;;5010929;28;20233;-69
2024/01/11 12:54:58;;;;;;;16.23;8.57;;;;;;;;;;5024895;28;20195;-70
2024/01/11 12:57:24;;;;;;;13.17;7.20;;;;;;;;;;5028683;28;20351;-70
2024/01/11 12:59:50;;;;;;;11.57;7.23;;;;;;;;;;5030517;28;20177;-69
2024/01/11 13:02:15;;;;;;;10.93;6.77;;;;;;;;;;5027546;28;20609;-70
2024/01/11 13:04:44;;;;;;;14.40;7.47;;;;;;;;;;5009667;28;20278;-70
2024/01/11 13:07:10;;;;;;;12.90;7.73;;;;;;;;;;5024387;28;20174;-69
2024/01/11 13:09:35;;;;;;;10.63;7.47;;;;;;;;;;5010004;28;20667;-70
2024/01/11 13:12:00;;;;;;;11.87;7.47;;;;;;;;;;5028257;28;20220;-69
2024/01/11 13:14:26;;;;;;;11.27;7.17;;;;;;;;;;5004877;28;20327;-69
2024/01/11 13:16:51;;;;;;;12.13;7.53;;;;;;;;;;5030370;28;20644;-69
2024/01/11 13:19:16;;;;;;;11.63;7.07;;;;;;;;;;5007415;28;20185;-70
2024/01/11 13:21:41;;;;;;;12.50;8.03;;;;;;;;;;5008014;28;20510;-70
2024/01/11 13:24:10;;;;;;;13.77;7.73;;;;;;;;;;5025479;28;20236;-69
2024/01/11 13:26:36;;;;;;;13.57;7.93;;;;;;;;;;5005954;28;20236;-69
2024/01/11 13:29:02;;;;;;;15.57;8.47;;;;;;;;;;5010632;28;20209;-70
2024/01/11 13:31:27;;;;;;;11.87;7.20;;;;;;;;;;5025495;28;20214;-69
2024/01/11 13:33:52;;;;;;;12.37;7.47;;;;;;;;;;5026683;28;20194;-68
2024/01/11 13:36:17;;;;;;;15.73;7.70;;;;;;;;;;5021525;28;20181;-69
2024/01/11 13:38:43;;;;;;;11.37;7.37;;;;;;;;;;5009968;28;20193;-70
2024/01/11 13:41:08;;;;;;;14.80;8.40;;;;;;;;;;5008441;28;20175;-69
2024/01/11 13:43:34;;;;;;;13.10;8.00;;;;;;;;;;5030088;28;20264;-69
2024/01/11 13:46:00;;;;;;;12.67;7.70;;;;;;;;;;5007637;28;20270;-69
2024/01/11 13:48:25;;;;;;;15.33;7.80;;;;;;;;;;5021741;28;20293;-69
2024/01/11 13:50:50;;;;;;;14.40;8.03;;;;;;;;;;5007300;28;20190;-70
2024/01/11 13:53:16;;;;;;;13.80;8.93;;;;;;;;;;5026304;28;20649;-70
2024/01/11 13:55:41;;;;;;;13.77;8.87;;;;;;;;;;5026535;28;20178;-69
2024/01/11 13:58:06;;;;;;;15.20;8.17;;;;;;;;;;5026037;28;20693;-69
2024/01/11 14:00:31;;;;;;;17.07;8.50;;;;;;;;;;5024032;28;20174;-68
2024/01/11 14:02:57;;;;;;;14.97;8.53;;;;;;;;;;5028276;28;20557;-70
2024/01/11 14:05:22;;;;;;;15.47;9.03;;;;;;;;;;5028433;28;20181;-70
2024/01/11 14:07:54;;;;;;;13.03;8.13;;;;;;;;;;5027434;28;20177;-69
2024/01/11 14:10:19;;;;;;;13.87;9.07;;;;;;;;;;5024217;28;20186;-69
2024/01/11 14:12:45;;;;;;;13.27;8.07;;;;;;;;;;5025036;28;20185;-70
2024/01/11 14:15:13;;;;;;;16.17;8.70;;;;;;;;;;5044284;22;20693;-68